sensor_id;sensor_type;location;lat;lon;timestamp;P1;durP1;ratioP1;P2;durP2;ratioP2
79066;SDS011;68470;50.224;14.348;2023-05-16T00:02:07;10.20;;;7.00;;
79066;SDS011;68470;50.224;14.348;2023-05-16T00:04:34;10.75;;;7.22;;
79066;SDS011;68470;50.224;14.348;2023-05-16T00:07:00;10.23;;;7.05;;
79066;SDS011;68470;50.224;14.348;2023-05-16T00:09:26;8.68;;;6.75;;
79066;SDS011;68470;50.224;14.348;2023-05-16T00:11:52;10.68;;;6.57;;
79066;SDS011;68470;50.224;14.348;2023-05-16T00:14:18;11.68;;;7.47;;
79066;SDS011;68470;50.224;14.348;2023-05-16T00:16:44;9.27;;;6.40;;
79066;SDS011;68470;50.224;14.348;2023-05-16T00:19:10;9.30;;;7.72;;
79066;SDS011;68470;50.224;14.348;2023-05-16T00:21:35;11.07;;;7.18;;
79066;SDS011;68470;50.224;14.348;2023-05-16T00:24:01;10.93;;;7.43;;
79066;SDS011;68470;50.224;14.348;2023-05-16T00:26:28;11.48;;;8.02;;
79066;SDS011;68470;50.224;14.348;2023-05-16T00:28:54;8.55;;;6.55;;
79066;SDS011;68470;50.224;14.348;2023-05-16T00:31:19;13.48;;;7.05;;
79066;SDS011;68470;50.224;14.348;2023-05-16T00:33:45;8.82;;;7.03;;
79066;SDS011;68470;50.224;14.348;2023-05-16T00:36:11;12.35;;;7.75;;
79066;SDS011;68470;50.224;14.348;2023-05-16T00:38:37;9.55;;;6.88;;
79066;SDS011;68470;50.224;14.348;2023-05-16T00:41:02;8.82;;;5.68;;
79066;SDS011;68470;50.224;14.348;2023-05-16T00:43:28;10.13;;;7.45;;
79066;SDS011;68470;50.224;14.348;2023-05-16T00:45:54;13.50;;;7.15;;
79066;SDS011;68470;50.224;14.348;2023-05-16T00:48:22;10.65;;;8.38;;
79066;SDS011;68470;50.224;14.348;2023-05-16T00:50:48;10.35;;;6.50;;
79066;SDS011;68470;50.224;14.348;2023-05-16T00:53:14;11.15;;;6.85;;
79066;SDS011;68470;50.224;14.348;2023-05-16T00:55:41;10.38;;;7.05;;
79066;SDS011;68470;50.224;14.348;2023-05-16T00:58:08;8.32;;;5.95;;
79066;SDS011;68470;50.224;14.348;2023-05-16T01:00:35;9.32;;;7.43;;
79066;SDS011;68470;50.224;14.348;2023-05-16T01:03:03;9.55;;;7.40;;
79066;SDS011;68470;50.224;14.348;2023-05-16T01:05:29;10.23;;;7.13;;
79066;SDS011;68470;50.224;14.348;2023-05-16T01:07:56;9.23;;;5.90;;
79066;SDS011;68470;50.224;14.348;2023-05-16T01:10:21;12.27;;;7.32;;
79066;SDS011;68470;50.224;14.348;2023-05-16T01:13:05;12.90;;;7.90;;
79066;SDS011;68470;50.224;14.348;2023-05-16T01:15:49;9.93;;;7.38;;
79066;SDS011;68470;50.224;14.348;2023-05-16T01:18:26;13.65;;;7.95;;
79066;SDS011;68470;50.224;14.348;2023-05-16T01:21:00;12.35;;;8.80;;
79066;SDS011;68470;50.224;14.348;2023-05-16T01:26:25;14.90;;;8.15;;
79066;SDS011;68470;50.224;14.348;2023-05-16T01:28:52;12.60;;;8.38;;
79066;SDS011;68470;50.224;14.348;2023-05-16T01:31:22;11.48;;;7.80;;
79066;SDS011;68470;50.224;14.348;2023-05-16T01:33:48;11.65;;;8.75;;
79066;SDS011;68470;50.224;14.348;2023-05-16T01:39:01;14.05;;;9.23;;
79066;SDS011;68470;50.224;14.348;2023-05-16T01:41:40;16.38;;;11.57;;
79066;SDS011;68470;50.224;14.348;2023-05-16T01:44:22;12.40;;;8.63;;
79066;SDS011;68470;50.224;14.348;2023-05-16T01:46:53;14.00;;;8.20;;
79066;SDS011;68470;50.224;14.348;2023-05-16T01:49:28;12.10;;;7.30;;
79066;SDS011;68470;50.224;14.348;2023-05-16T01:52:00;12.88;;;8.85;;
79066;SDS011;68470;50.224;14.348;2023-05-16T01:54:31;16.42;;;10.43;;
79066;SDS011;68470;50.224;14.348;2023-05-16T01:56:59;13.35;;;8.02;;
79066;SDS011;68470;50.224;14.348;2023-05-16T01:59:28;13.00;;;8.63;;
79066;SDS011;68470;50.224;14.348;2023-05-16T02:01:56;13.20;;;9.30;;
79066;SDS011;68470;50.224;14.348;2023-05-16T02:04:22;16.38;;;11.70;;
79066;SDS011;68470;50.224;14.348;2023-05-16T02:06:48;14.02;;;8.55;;
79066;SDS011;68470;50.224;14.348;2023-05-16T02:09:15;12.82;;;9.02;;
79066;SDS011;68470;50.224;14.348;2023-05-16T02:11:40;17.80;;;10.35;;
79066;SDS011;68470;50.224;14.348;2023-05-16T02:14:06;20.90;;;10.35;;
79066;SDS011;68470;50.224;14.348;2023-05-16T02:16:32;16.90;;;10.93;;
79066;SDS011;68470;50.224;14.348;2023-05-16T02:18:58;16.73;;;9.82;;
79066;SDS011;68470;50.224;14.348;2023-05-16T02:21:23;15.43;;;9.85;;
79066;SDS011;68470;50.224;14.348;2023-05-16T02:23:50;19.08;;;11.02;;
79066;SDS011;68470;50.224;14.348;2023-05-16T02:26:15;19.65;;;11.75;;
79066;SDS011;68470;50.224;14.348;2023-05-16T02:28:41;17.70;;;10.93;;
79066;SDS011;68470;50.224;14.348;2023-05-16T02:31:07;17.55;;;10.50;;
79066;SDS011;68470;50.224;14.348;2023-05-16T02:33:32;17.83;;;9.52;;
79066;SDS011;68470;50.224;14.348;2023-05-16T02:35:58;18.83;;;10.80;;
79066;SDS011;68470;50.224;14.348;2023-05-16T02:38:24;18.23;;;10.70;;
79066;SDS011;68470;50.224;14.348;2023-05-16T02:40:50;19.52;;;12.45;;
79066;SDS011;68470;50.224;14.348;2023-05-16T02:43:16;16.42;;;11.25;;
79066;SDS011;68470;50.224;14.348;2023-05-16T02:45:41;17.63;;;11.45;;
79066;SDS011;68470;50.224;14.348;2023-05-16T02:48:07;19.63;;;11.68;;
79066;SDS011;68470;50.224;14.348;2023-05-16T02:50:33;18.83;;;11.32;;
79066;SDS011;68470;50.224;14.348;2023-05-16T02:52:59;17.48;;;12.15;;
79066;SDS011;68470;50.224;14.348;2023-05-16T02:55:29;15.75;;;10.35;;
79066;SDS011;68470;50.224;14.348;2023-05-16T02:57:55;23.13;;;12.13;;
79066;SDS011;68470;50.224;14.348;2023-05-16T03:00:20;17.75;;;11.63;;
79066;SDS011;68470;50.224;14.348;2023-05-16T03:02:47;17.98;;;10.50;;
79066;SDS011;68470;50.224;14.348;2023-05-16T03:05:13;20.67;;;11.45;;
79066;SDS011;68470;50.224;14.348;2023-05-16T03:07:39;18.98;;;10.98;;
79066;SDS011;68470;50.224;14.348;2023-05-16T03:10:05;17.77;;;12.02;;
79066;SDS011;68470;50.224;14.348;2023-05-16T03:12:32;19.20;;;11.25;;
79066;SDS011;68470;50.224;14.348;2023-05-16T03:14:57;20.27;;;11.30;;
79066;SDS011;68470;50.224;14.348;2023-05-16T03:17:23;20.02;;;11.05;;
79066;SDS011;68470;50.224;14.348;2023-05-16T03:19:49;15.80;;;10.40;;
79066;SDS011;68470;50.224;14.348;2023-05-16T03:22:15;15.95;;;10.60;;
79066;SDS011;68470;50.224;14.348;2023-05-16T03:24:41;16.02;;;10.18;;
79066;SDS011;68470;50.224;14.348;2023-05-16T03:27:07;17.08;;;10.65;;
79066;SDS011;68470;50.224;14.348;2023-05-16T03:29:32;17.00;;;10.77;;
79066;SDS011;68470;50.224;14.348;2023-05-16T03:31:59;17.70;;;10.98;;
79066;SDS011;68470;50.224;14.348;2023-05-16T03:34:25;18.65;;;11.70;;
79066;SDS011;68470;50.224;14.348;2023-05-16T03:36:50;20.92;;;11.90;;
79066;SDS011;68470;50.224;14.348;2023-05-16T03:39:16;18.70;;;10.93;;
79066;SDS011;68470;50.224;14.348;2023-05-16T03:41:42;19.17;;;10.70;;
79066;SDS011;68470;50.224;14.348;2023-05-16T03:44:08;16.77;;;10.68;;
79066;SDS011;68470;50.224;14.348;2023-05-16T03:46:35;17.13;;;10.38;;
79066;SDS011;68470;50.224;14.348;2023-05-16T03:49:00;17.27;;;9.98;;
79066;SDS011;68470;50.224;14.348;2023-05-16T03:51:26;18.85;;;11.80;;
79066;SDS011;68470;50.224;14.348;2023-05-16T03:53:52;16.25;;;10.88;;
79066;SDS011;68470;50.224;14.348;2023-05-16T03:56:19;16.65;;;9.43;;
79066;SDS011;68470;50.224;14.348;2023-05-16T03:58:46;17.45;;;10.00;;
79066;SDS011;68470;50.224;14.348;2023-05-16T04:01:12;16.05;;;10.40;;
79066;SDS011;68470;50.224;14.348;2023-05-16T04:03:38;16.70;;;9.93;;
79066;SDS011;68470;50.224;14.348;2023-05-16T04:06:05;15.75;;;8.95;;
79066;SDS011;68470;50.224;14.348;2023-05-16T04:08:31;16.33;;;10.02;;
79066;SDS011;68470;50.224;14.348;2023-05-16T04:10:57;21.02;;;12.45;;
79066;SDS011;68470;50.224;14.348;2023-05-16T04:13:22;25.35;;;16.63;;
79066;SDS011;68470;50.224;14.348;2023-05-16T04:15:48;17.13;;;11.80;;
79066;SDS011;68470;50.224;14.348;2023-05-16T04:18:14;18.20;;;9.98;;
79066;SDS011;68470;50.224;14.348;2023-05-16T04:20:43;16.98;;;9.70;;
79066;SDS011;68470;50.224;14.348;2023-05-16T04:23:11;14.55;;;9.68;;
79066;SDS011;68470;50.224;14.348;2023-05-16T04:25:37;12.20;;;8.45;;
79066;SDS011;68470;50.224;14.348;2023-05-16T04:28:03;11.45;;;8.25;;
79066;SDS011;68470;50.224;14.348;2023-05-16T04:30:30;11.32;;;8.10;;
79066;SDS011;68470;50.224;14.348;2023-05-16T04:32:55;11.55;;;7.63;;
79066;SDS011;68470;50.224;14.348;2023-05-16T04:35:24;11.45;;;8.27;;
79066;SDS011;68470;50.224;14.348;2023-05-16T04:37:50;12.82;;;8.73;;
79066;SDS011;68470;50.224;14.348;2023-05-16T04:40:16;12.98;;;8.82;;
79066;SDS011;68470;50.224;14.348;2023-05-16T04:42:42;12.15;;;9.15;;
79066;SDS011;68470;50.224;14.348;2023-05-16T04:45:08;12.02;;;8.90;;
79066;SDS011;68470;50.224;14.348;2023-05-16T04:47:36;11.93;;;8.07;;
79066;SDS011;68470;50.224;14.348;2023-05-16T04:50:02;12.02;;;8.18;;
79066;SDS011;68470;50.224;14.348;2023-05-16T04:52:28;12.13;;;7.28;;
79066;SDS011;68470;50.224;14.348;2023-05-16T04:54:54;9.90;;;7.53;;
79066;SDS011;68470;50.224;14.348;2023-05-16T04:57:20;10.93;;;7.32;;
79066;SDS011;68470;50.224;14.348;2023-05-16T04:59:45;11.80;;;7.75;;
79066;SDS011;68470;50.224;14.348;2023-05-16T05:02:11;10.32;;;6.95;;
79066;SDS011;68470;50.224;14.348;2023-05-16T05:04:37;12.13;;;7.65;;
79066;SDS011;68470;50.224;14.348;2023-05-16T05:07:02;10.25;;;7.32;;
79066;SDS011;68470;50.224;14.348;2023-05-16T05:09:28;14.05;;;7.53;;
79066;SDS011;68470;50.224;14.348;2023-05-16T05:11:54;12.48;;;8.63;;
79066;SDS011;68470;50.224;14.348;2023-05-16T05:14:20;11.00;;;7.78;;
79066;SDS011;68470;50.224;14.348;2023-05-16T05:16:45;10.82;;;7.97;;
79066;SDS011;68470;50.224;14.348;2023-05-16T05:19:11;12.70;;;7.50;;
79066;SDS011;68470;50.224;14.348;2023-05-16T05:21:37;9.82;;;7.15;;
79066;SDS011;68470;50.224;14.348;2023-05-16T05:24:03;24.40;;;16.15;;
79066;SDS011;68470;50.224;14.348;2023-05-16T05:26:29;16.23;;;12.02;;
79066;SDS011;68470;50.224;14.348;2023-05-16T05:28:55;13.70;;;9.05;;
79066;SDS011;68470;50.224;14.348;2023-05-16T05:31:20;11.18;;;7.82;;
79066;SDS011;68470;50.224;14.348;2023-05-16T05:33:46;12.57;;;7.90;;
79066;SDS011;68470;50.224;14.348;2023-05-16T05:36:12;9.65;;;8.57;;
79066;SDS011;68470;50.224;14.348;2023-05-16T05:38:37;10.93;;;7.82;;
79066;SDS011;68470;50.224;14.348;2023-05-16T05:41:03;11.23;;;7.82;;
79066;SDS011;68470;50.224;14.348;2023-05-16T05:43:30;8.40;;;6.88;;
79066;SDS011;68470;50.224;14.348;2023-05-16T05:45:55;9.95;;;7.97;;
79066;SDS011;68470;50.224;14.348;2023-05-16T05:48:21;8.85;;;7.38;;
79066;SDS011;68470;50.224;14.348;2023-05-16T05:50:47;13.52;;;8.25;;
79066;SDS011;68470;50.224;14.348;2023-05-16T05:53:13;10.93;;;7.32;;
79066;SDS011;68470;50.224;14.348;2023-05-16T05:55:38;8.65;;;7.10;;
79066;SDS011;68470;50.224;14.348;2023-05-16T05:58:06;9.82;;;7.25;;
79066;SDS011;68470;50.224;14.348;2023-05-16T06:00:32;9.77;;;7.47;;
79066;SDS011;68470;50.224;14.348;2023-05-16T06:02:58;9.27;;;6.63;;
79066;SDS011;68470;50.224;14.348;2023-05-16T06:05:23;11.15;;;7.60;;
79066;SDS011;68470;50.224;14.348;2023-05-16T06:07:49;11.60;;;9.13;;
79066;SDS011;68470;50.224;14.348;2023-05-16T06:10:15;9.52;;;7.22;;
79066;SDS011;68470;50.224;14.348;2023-05-16T06:12:40;11.20;;;8.52;;
79066;SDS011;68470;50.224;14.348;2023-05-16T06:15:06;10.13;;;7.82;;
79066;SDS011;68470;50.224;14.348;2023-05-16T06:17:32;12.82;;;8.10;;
79066;SDS011;68470;50.224;14.348;2023-05-16T06:19:58;10.18;;;7.53;;
79066;SDS011;68470;50.224;14.348;2023-05-16T06:22:24;10.63;;;8.02;;
79066;SDS011;68470;50.224;14.348;2023-05-16T06:24:49;11.07;;;8.77;;
79066;SDS011;68470;50.224;14.348;2023-05-16T06:27:15;12.80;;;8.45;;
79066;SDS011;68470;50.224;14.348;2023-05-16T06:29:41;11.63;;;8.23;;
79066;SDS011;68470;50.224;14.348;2023-05-16T06:32:06;12.15;;;9.32;;
79066;SDS011;68470;50.224;14.348;2023-05-16T06:34:32;11.35;;;8.40;;
79066;SDS011;68470;50.224;14.348;2023-05-16T06:36:58;10.70;;;8.05;;
79066;SDS011;68470;50.224;14.348;2023-05-16T06:39:24;13.82;;;9.80;;
79066;SDS011;68470;50.224;14.348;2023-05-16T06:41:50;10.60;;;8.38;;
79066;SDS011;68470;50.224;14.348;2023-05-16T06:44:16;12.88;;;8.63;;
79066;SDS011;68470;50.224;14.348;2023-05-16T06:46:42;12.68;;;9.02;;
79066;SDS011;68470;50.224;14.348;2023-05-16T06:49:07;13.30;;;10.23;;
79066;SDS011;68470;50.224;14.348;2023-05-16T06:51:33;12.80;;;9.75;;
79066;SDS011;68470;50.224;14.348;2023-05-16T06:53:59;14.15;;;9.68;;
79066;SDS011;68470;50.224;14.348;2023-05-16T06:56:27;15.13;;;9.77;;
79066;SDS011;68470;50.224;14.348;2023-05-16T06:58:53;14.50;;;9.73;;
79066;SDS011;68470;50.224;14.348;2023-05-16T07:01:18;13.35;;;11.38;;
79066;SDS011;68470;50.224;14.348;2023-05-16T07:03:44;20.27;;;13.23;;
79066;SDS011;68470;50.224;14.348;2023-05-16T07:06:10;12.73;;;9.43;;
79066;SDS011;68470;50.224;14.348;2023-05-16T07:08:35;11.88;;;9.40;;
79066;SDS011;68470;50.224;14.348;2023-05-16T07:11:01;13.50;;;10.75;;
79066;SDS011;68470;50.224;14.348;2023-05-16T07:13:27;13.48;;;10.25;;
79066;SDS011;68470;50.224;14.348;2023-05-16T07:15:53;12.27;;;9.75;;
79066;SDS011;68470;50.224;14.348;2023-05-16T07:18:19;13.57;;;8.90;;
79066;SDS011;68470;50.224;14.348;2023-05-16T07:20:51;11.20;;;8.32;;
79066;SDS011;68470;50.224;14.348;2023-05-16T07:23:17;13.20;;;8.07;;
79066;SDS011;68470;50.224;14.348;2023-05-16T07:25:45;11.95;;;8.70;;
79066;SDS011;68470;50.224;14.348;2023-05-16T07:28:10;12.30;;;8.35;;
79066;SDS011;68470;50.224;14.348;2023-05-16T07:30:36;9.93;;;8.38;;
79066;SDS011;68470;50.224;14.348;2023-05-16T07:33:04;12.80;;;9.20;;
79066;SDS011;68470;50.224;14.348;2023-05-16T07:35:30;12.45;;;8.68;;
79066;SDS011;68470;50.224;14.348;2023-05-16T07:37:56;11.20;;;8.45;;
79066;SDS011;68470;50.224;14.348;2023-05-16T07:40:22;10.07;;;8.40;;
79066;SDS011;68470;50.224;14.348;2023-05-16T07:42:52;11.18;;;8.25;;
79066;SDS011;68470;50.224;14.348;2023-05-16T07:45:18;12.15;;;9.32;;
79066;SDS011;68470;50.224;14.348;2023-05-16T07:47:46;12.88;;;9.23;;
79066;SDS011;68470;50.224;14.348;2023-05-16T07:50:12;13.25;;;11.60;;
79066;SDS011;68470;50.224;14.348;2023-05-16T07:52:38;14.18;;;10.45;;
79066;SDS011;68470;50.224;14.348;2023-05-16T07:55:04;14.30;;;10.60;;
79066;SDS011;68470;50.224;14.348;2023-05-16T07:57:30;15.40;;;11.48;;
79066;SDS011;68470;50.224;14.348;2023-05-16T07:59:56;15.05;;;11.85;;
79066;SDS011;68470;50.224;14.348;2023-05-16T08:02:22;12.85;;;9.00;;
79066;SDS011;68470;50.224;14.348;2023-05-16T08:07:16;15.05;;;9.95;;
79066;SDS011;68470;50.224;14.348;2023-05-16T08:09:42;16.77;;;10.75;;
79066;SDS011;68470;50.224;14.348;2023-05-16T08:12:08;12.18;;;9.70;;
79066;SDS011;68470;50.224;14.348;2023-05-16T08:14:34;17.95;;;12.77;;
79066;SDS011;68470;50.224;14.348;2023-05-16T08:17:01;14.30;;;12.80;;
79066;SDS011;68470;50.224;14.348;2023-05-16T08:19:27;15.00;;;12.48;;
79066;SDS011;68470;50.224;14.348;2023-05-16T08:21:53;17.17;;;12.07;;
79066;SDS011;68470;50.224;14.348;2023-05-16T08:24:19;14.77;;;11.98;;
79066;SDS011;68470;50.224;14.348;2023-05-16T08:26:45;15.88;;;12.13;;
79066;SDS011;68470;50.224;14.348;2023-05-16T08:29:11;17.05;;;11.82;;
79066;SDS011;68470;50.224;14.348;2023-05-16T08:31:36;13.90;;;9.93;;
79066;SDS011;68470;50.224;14.348;2023-05-16T08:34:02;16.13;;;9.80;;
79066;SDS011;68470;50.224;14.348;2023-05-16T08:36:30;15.27;;;11.30;;
79066;SDS011;68470;50.224;14.348;2023-05-16T08:38:59;15.27;;;10.27;;
79066;SDS011;68470;50.224;14.348;2023-05-16T08:41:24;16.15;;;11.93;;
79066;SDS011;68470;50.224;14.348;2023-05-16T08:43:50;16.83;;;15.07;;
79066;SDS011;68470;50.224;14.348;2023-05-16T08:46:17;16.23;;;12.73;;
79066;SDS011;68470;50.224;14.348;2023-05-16T08:48:47;18.25;;;13.77;;
79066;SDS011;68470;50.224;14.348;2023-05-16T08:51:16;20.08;;;15.65;;
79066;SDS011;68470;50.224;14.348;2023-05-16T08:53:53;16.77;;;11.93;;
79066;SDS011;68470;50.224;14.348;2023-05-16T08:56:24;15.85;;;11.15;;
79066;SDS011;68470;50.224;14.348;2023-05-16T08:58:50;15.68;;;12.43;;
79066;SDS011;68470;50.224;14.348;2023-05-16T09:01:19;18.50;;;12.48;;
79066;SDS011;68470;50.224;14.348;2023-05-16T09:03:46;15.82;;;12.00;;
79066;SDS011;68470;50.224;14.348;2023-05-16T09:06:13;17.83;;;14.18;;
79066;SDS011;68470;50.224;14.348;2023-05-16T09:08:40;16.50;;;11.65;;
79066;SDS011;68470;50.224;14.348;2023-05-16T09:11:07;17.02;;;14.02;;
79066;SDS011;68470;50.224;14.348;2023-05-16T09:13:34;15.60;;;11.05;;
79066;SDS011;68470;50.224;14.348;2023-05-16T09:16:14;18.00;;;11.20;;
79066;SDS011;68470;50.224;14.348;2023-05-16T09:18:59;15.63;;;13.57;;
79066;SDS011;68470;50.224;14.348;2023-05-16T09:21:26;15.18;;;11.73;;
79066;SDS011;68470;50.224;14.348;2023-05-16T09:23:54;17.02;;;12.90;;
79066;SDS011;68470;50.224;14.348;2023-05-16T09:26:19;16.42;;;11.85;;
79066;SDS011;68470;50.224;14.348;2023-05-16T09:28:47;15.00;;;12.10;;
79066;SDS011;68470;50.224;14.348;2023-05-16T09:31:19;14.85;;;11.80;;
79066;SDS011;68470;50.224;14.348;2023-05-16T09:33:47;15.82;;;11.30;;
79066;SDS011;68470;50.224;14.348;2023-05-16T09:36:14;12.93;;;9.10;;
79066;SDS011;68470;50.224;14.348;2023-05-16T09:38:41;12.93;;;9.88;;
79066;SDS011;68470;50.224;14.348;2023-05-16T09:41:08;18.27;;;12.68;;
79066;SDS011;68470;50.224;14.348;2023-05-16T09:43:39;17.13;;;14.20;;
79066;SDS011;68470;50.224;14.348;2023-05-16T09:46:07;17.98;;;14.60;;
79066;SDS011;68470;50.224;14.348;2023-05-16T09:48:33;17.17;;;12.73;;
79066;SDS011;68470;50.224;14.348;2023-05-16T09:50:58;18.27;;;10.95;;
79066;SDS011;68470;50.224;14.348;2023-05-16T09:53:29;14.25;;;10.27;;
79066;SDS011;68470;50.224;14.348;2023-05-16T09:58:36;14.63;;;10.50;;
79066;SDS011;68470;50.224;14.348;2023-05-16T10:01:04;16.55;;;12.38;;
79066;SDS011;68470;50.224;14.348;2023-05-16T10:03:35;16.42;;;12.45;;
79066;SDS011;68470;50.224;14.348;2023-05-16T10:06:05;16.67;;;12.00;;
79066;SDS011;68470;50.224;14.348;2023-05-16T10:08:33;16.35;;;13.45;;
79066;SDS011;68470;50.224;14.348;2023-05-16T10:11:03;20.88;;;15.18;;
79066;SDS011;68470;50.224;14.348;2023-05-16T10:13:32;16.25;;;12.05;;
79066;SDS011;68470;50.224;14.348;2023-05-16T10:15:59;19.67;;;13.27;;
79066;SDS011;68470;50.224;14.348;2023-05-16T10:18:30;16.60;;;12.20;;
79066;SDS011;68470;50.224;14.348;2023-05-16T10:20:57;13.40;;;10.82;;
79066;SDS011;68470;50.224;14.348;2023-05-16T10:23:29;19.85;;;16.23;;
79066;SDS011;68470;50.224;14.348;2023-05-16T10:25:57;17.20;;;14.55;;
79066;SDS011;68470;50.224;14.348;2023-05-16T10:28:25;14.30;;;12.07;;
79066;SDS011;68470;50.224;14.348;2023-05-16T10:30:52;17.67;;;12.55;;
79066;SDS011;68470;50.224;14.348;2023-05-16T10:33:21;20.17;;;12.75;;
79066;SDS011;68470;50.224;14.348;2023-05-16T10:35:46;16.58;;;12.25;;
79066;SDS011;68470;50.224;14.348;2023-05-16T10:38:16;15.13;;;11.55;;
79066;SDS011;68470;50.224;14.348;2023-05-16T10:40:43;14.88;;;13.15;;
79066;SDS011;68470;50.224;14.348;2023-05-16T10:43:10;17.38;;;10.70;;
79066;SDS011;68470;50.224;14.348;2023-05-16T10:45:46;19.60;;;11.68;;
79066;SDS011;68470;50.224;14.348;2023-05-16T10:48:19;15.30;;;11.27;;
79066;SDS011;68470;50.224;14.348;2023-05-16T10:50:53;20.42;;;12.48;;
79066;SDS011;68470;50.224;14.348;2023-05-16T11:01:21;17.17;;;11.80;;
79066;SDS011;68470;50.224;14.348;2023-05-16T11:06:21;18.58;;;13.50;;
79066;SDS011;68470;50.224;14.348;2023-05-16T11:16:50;17.73;;;12.82;;
79066;SDS011;68470;50.224;14.348;2023-05-16T11:22:12;18.17;;;11.52;;
79066;SDS011;68470;50.224;14.348;2023-05-16T11:24:56;24.20;;;11.57;;
79066;SDS011;68470;50.224;14.348;2023-05-16T11:29:57;23.77;;;17.73;;
79066;SDS011;68470;50.224;14.348;2023-05-16T11:32:30;19.58;;;14.13;;
79066;SDS011;68470;50.224;14.348;2023-05-16T11:34:58;22.60;;;16.08;;
79066;SDS011;68470;50.224;14.348;2023-05-16T11:37:23;23.60;;;14.02;;
79066;SDS011;68470;50.224;14.348;2023-05-16T11:39:49;25.92;;;15.90;;
79066;SDS011;68470;50.224;14.348;2023-05-16T11:42:15;25.42;;;15.88;;
79066;SDS011;68470;50.224;14.348;2023-05-16T11:44:43;20.40;;;13.35;;
79066;SDS011;68470;50.224;14.348;2023-05-16T11:47:09;21.10;;;11.88;;
79066;SDS011;68470;50.224;14.348;2023-05-16T11:49:35;24.38;;;14.55;;
79066;SDS011;68470;50.224;14.348;2023-05-16T11:52:01;21.17;;;12.38;;
79066;SDS011;68470;50.224;14.348;2023-05-16T11:54:30;26.23;;;14.70;;
79066;SDS011;68470;50.224;14.348;2023-05-16T11:56:56;25.98;;;16.55;;
79066;SDS011;68470;50.224;14.348;2023-05-16T11:59:24;21.45;;;12.95;;
79066;SDS011;68470;50.224;14.348;2023-05-16T12:01:50;21.58;;;15.48;;
79066;SDS011;68470;50.224;14.348;2023-05-16T12:04:17;21.33;;;16.00;;
79066;SDS011;68470;50.224;14.348;2023-05-16T12:06:56;17.98;;;11.60;;
79066;SDS011;68470;50.224;14.348;2023-05-16T12:09:23;14.73;;;10.43;;
79066;SDS011;68470;50.224;14.348;2023-05-16T12:11:49;17.83;;;13.13;;
79066;SDS011;68470;50.224;14.348;2023-05-16T12:14:17;18.42;;;12.02;;
79066;SDS011;68470;50.224;14.348;2023-05-16T12:16:44;16.33;;;11.82;;
79066;SDS011;68470;50.224;14.348;2023-05-16T12:19:11;16.40;;;9.88;;
79066;SDS011;68470;50.224;14.348;2023-05-16T12:21:38;13.80;;;9.52;;
79066;SDS011;68470;50.224;14.348;2023-05-16T12:24:08;14.90;;;10.02;;
79066;SDS011;68470;50.224;14.348;2023-05-16T12:26:37;14.18;;;10.02;;
79066;SDS011;68470;50.224;14.348;2023-05-16T12:29:04;15.48;;;11.05;;
79066;SDS011;68470;50.224;14.348;2023-05-16T12:31:31;16.70;;;11.68;;
79066;SDS011;68470;50.224;14.348;2023-05-16T12:34:01;15.63;;;11.77;;
79066;SDS011;68470;50.224;14.348;2023-05-16T12:36:30;14.15;;;10.00;;
79066;SDS011;68470;50.224;14.348;2023-05-16T12:39:01;16.80;;;11.30;;
79066;SDS011;68470;50.224;14.348;2023-05-16T12:41:28;15.77;;;10.60;;
79066;SDS011;68470;50.224;14.348;2023-05-16T12:46:50;16.30;;;9.60;;
79066;SDS011;68470;50.224;14.348;2023-05-16T12:49:20;18.17;;;10.93;;
79066;SDS011;68470;50.224;14.348;2023-05-16T12:51:48;17.85;;;10.52;;
79066;SDS011;68470;50.224;14.348;2023-05-16T12:54:17;12.65;;;9.10;;
79066;SDS011;68470;50.224;14.348;2023-05-16T12:56:44;18.95;;;13.77;;
79066;SDS011;68470;50.224;14.348;2023-05-16T12:59:10;20.33;;;11.05;;
79066;SDS011;68470;50.224;14.348;2023-05-16T13:01:39;15.48;;;10.27;;
79066;SDS011;68470;50.224;14.348;2023-05-16T13:04:06;16.88;;;12.10;;
79066;SDS011;68470;50.224;14.348;2023-05-16T13:06:32;17.05;;;10.77;;
79066;SDS011;68470;50.224;14.348;2023-05-16T13:08:59;16.95;;;11.50;;
79066;SDS011;68470;50.224;14.348;2023-05-16T13:11:25;15.10;;;10.00;;
79066;SDS011;68470;50.224;14.348;2023-05-16T13:13:51;19.05;;;14.43;;
79066;SDS011;68470;50.224;14.348;2023-05-16T13:16:17;16.67;;;11.05;;
79066;SDS011;68470;50.224;14.348;2023-05-16T13:18:45;18.10;;;11.73;;
79066;SDS011;68470;50.224;14.348;2023-05-16T13:21:12;14.52;;;11.85;;
79066;SDS011;68470;50.224;14.348;2023-05-16T13:23:39;13.25;;;9.00;;
79066;SDS011;68470;50.224;14.348;2023-05-16T13:26:05;15.50;;;12.40;;
79066;SDS011;68470;50.224;14.348;2023-05-16T13:28:31;15.50;;;12.68;;
79066;SDS011;68470;50.224;14.348;2023-05-16T13:30:57;11.55;;;8.57;;
79066;SDS011;68470;50.224;14.348;2023-05-16T13:33:25;15.52;;;9.30;;
79066;SDS011;68470;50.224;14.348;2023-05-16T13:35:50;15.50;;;10.75;;
79066;SDS011;68470;50.224;14.348;2023-05-16T13:38:16;14.75;;;11.35;;
79066;SDS011;68470;50.224;14.348;2023-05-16T13:40:42;13.95;;;9.63;;
79066;SDS011;68470;50.224;14.348;2023-05-16T13:43:09;16.77;;;9.27;;
79066;SDS011;68470;50.224;14.348;2023-05-16T13:45:35;15.23;;;10.50;;
79066;SDS011;68470;50.224;14.348;2023-05-16T13:48:02;11.57;;;7.95;;
79066;SDS011;68470;50.224;14.348;2023-05-16T13:50:28;15.70;;;13.48;;
79066;SDS011;68470;50.224;14.348;2023-05-16T13:52:54;12.77;;;9.40;;
79066;SDS011;68470;50.224;14.348;2023-05-16T13:55:21;13.43;;;10.43;;
79066;SDS011;68470;50.224;14.348;2023-05-16T13:57:48;13.90;;;8.05;;
79066;SDS011;68470;50.224;14.348;2023-05-16T14:00:13;11.35;;;7.90;;
79066;SDS011;68470;50.224;14.348;2023-05-16T14:02:40;13.20;;;9.70;;
79066;SDS011;68470;50.224;14.348;2023-05-16T14:05:06;11.90;;;7.47;;
79066;SDS011;68470;50.224;14.348;2023-05-16T14:07:33;12.65;;;7.95;;
79066;SDS011;68470;50.224;14.348;2023-05-16T14:10:00;10.70;;;7.70;;
79066;SDS011;68470;50.224;14.348;2023-05-16T14:12:26;11.07;;;9.00;;
79066;SDS011;68470;50.224;14.348;2023-05-16T14:14:52;11.70;;;7.75;;
79066;SDS011;68470;50.224;14.348;2023-05-16T14:17:19;14.75;;;9.65;;
79066;SDS011;68470;50.224;14.348;2023-05-16T14:19:44;12.82;;;8.35;;
79066;SDS011;68470;50.224;14.348;2023-05-16T14:22:10;13.43;;;10.75;;
79066;SDS011;68470;50.224;14.348;2023-05-16T14:24:36;12.73;;;9.40;;
79066;SDS011;68470;50.224;14.348;2023-05-16T14:27:03;10.48;;;7.50;;
79066;SDS011;68470;50.224;14.348;2023-05-16T14:29:29;10.82;;;7.68;;
79066;SDS011;68470;50.224;14.348;2023-05-16T14:31:55;12.38;;;7.55;;
79066;SDS011;68470;50.224;14.348;2023-05-16T14:34:21;13.60;;;10.25;;
79066;SDS011;68470;50.224;14.348;2023-05-16T14:36:48;14.30;;;9.55;;
79066;SDS011;68470;50.224;14.348;2023-05-16T14:39:13;11.45;;;8.88;;
79066;SDS011;68470;50.224;14.348;2023-05-16T14:41:40;13.70;;;9.43;;
79066;SDS011;68470;50.224;14.348;2023-05-16T14:44:06;15.50;;;9.60;;
79066;SDS011;68470;50.224;14.348;2023-05-16T14:46:32;12.13;;;8.18;;
79066;SDS011;68470;50.224;14.348;2023-05-16T14:48:58;12.18;;;9.75;;
79066;SDS011;68470;50.224;14.348;2023-05-16T14:51:23;10.95;;;7.93;;
79066;SDS011;68470;50.224;14.348;2023-05-16T14:53:49;11.30;;;6.63;;